Time;durP1;ratioP1;P1;durP2;ratioP2;P2;SDS_P1;SDS_P2;PMS_P1;PMS_P2;Temp;Humidity;BMP_temperature;BMP_pressure;BME280_temperature;BME280_humidity;BME280_pressure;Samples;Min_cycle;Max_cycle;Signal;HPM_P1;HPM_P2
2021/05/16 00:01:10;;;;;;;3.10;0.90;;;18.00;66.00;;;;;;5075411;28;20032;-65
2021/05/16 00:03:36;;;;;;;1.98;0.85;;;18.30;66.10;;;;;;5075346;28;20501;-65
2021/05/16 00:06:02;;;;;;;3.40;1.10;;;18.10;66.00;;;;;;5073737;28;20036;-65
2021/05/16 00:08:28;;;;;;;4.15;1.27;;;18.10;66.10;;;;;;5074650;28;20391;-65
2021/05/16 00:10:54;;;;;;;1.63;0.80;;;18.30;90.80;;;;;;5075241;28;20013;-65
2021/05/16 00:13:20;;;;;;;2.92;1.10;;;18.10;66.10;;;;;;5073970;28;20438;-65
2021/05/16 00:15:46;;;;;;;2.88;0.93;;;17.90;66.00;;;;;;5075147;28;20021;-65
2021/05/16 00:18:11;;;;;;;4.32;1.33;;;17.80;65.90;;;;;;5075430;28;20035;-66
2021/05/16 00:20:37;;;;;;;3.97;1.27;;;18.10;66.10;;;;;;5075044;28;20052;-65
2021/05/16 00:23:04;;;;;;;3.25;1.00;;;17.90;66.00;;;;;;5075004;28;20027;-65
2021/05/16 00:25:31;;;;;;;3.35;0.98;;;18.10;66.20;;;;;;5075004;28;20472;-65
2021/05/16 00:27:57;;;;;;;3.45;1.13;;;18.10;66.20;;;;;;5073935;28;20040;-65
2021/05/16 00:30:25;;;;;;;3.03;1.23;;;18.50;66.40;;;;;;5075200;28;20099;-65
2021/05/16 00:32:52;;;;;;;5.13;1.65;;;17.90;66.10;;;;;;5074796;28;20422;-65
2021/05/16 00:35:19;;;;;;;3.63;1.10;;;18.10;66.20;;;;;;5073580;28;20078;-65
2021/05/16 00:37:46;;;;;;;5.13;1.60;;;18.10;66.20;;;;;;5073539;28;20028;-65
2021/05/16 00:40:12;;;;;;;4.50;1.05;;;18.10;66.20;;;;;;5074864;28;20055;-65
2021/05/16 00:42:38;;;;;;;4.53;1.08;;;18.10;66.20;;;;;;5074612;28;20067;-65
2021/05/16 00:45:04;;;;;;;4.40;1.02;;;18.00;90.90;;;;;;5074623;28;20471;-65
2021/05/16 00:47:29;;;;;;;2.00;1.35;;;18.00;66.10;;;;;;5074506;28;20177;-65
2021/05/16 00:49:55;;;;;;;4.82;1.30;;;18.00;66.20;;;;;;5074743;28;20021;-65
2021/05/16 00:52:23;;;;;;;3.55;1.23;;;18.10;66.20;;;;;;5074759;28;20039;-65
2021/05/16 00:54:50;;;;;;;3.97;1.20;;;18.00;66.20;;;;;;5074427;28;20483;-65
2021/05/16 00:57:16;;;;;;;3.15;1.35;;;18.00;66.20;;;;;;5074607;28;20021;-65
2021/05/16 00:59:42;;;;;;;4.55;1.50;;;18.00;66.20;;;;;;5074377;28;20016;-65
2021/05/16 01:02:07;;;;;;;6.53;1.48;;;17.80;66.10;;;;;;5073020;28;20031;-65
2021/05/16 01:04:33;;;;;;;3.35;1.17;;;18.00;66.20;;;;;;5074210;28;20028;-65
2021/05/16 01:06:58;;;;;;;6.43;1.98;;;18.00;66.10;;;;;;5074098;28;20020;-65
2021/05/16 01:09:24;;;;;;;4.32;1.42;;;18.10;66.20;;;;;;5074153;28;20039;-65
2021/05/16 01:11:51;;;;;;;7.13;1.60;;;17.60;66.00;;;;;;5072766;28;20017;-65
2021/05/16 01:14:24;;;;;;;5.28;1.40;;;17.70;66.10;;;;;;5074057;28;20078;-65
2021/05/16 01:16:50;;;;;;;4.18;1.40;;;18.00;90.40;;;;;;5074025;28;20017;-65
2021/05/16 01:19:17;;;;;;;4.25;1.98;;;18.00;66.30;;;;;;5073719;28;20035;-65
2021/05/16 01:21:42;;;;;;;3.70;1.33;;;18.00;66.20;;;;;;5073842;28;20020;-65
2021/05/16 01:24:20;;;;;;;3.05;1.20;;;17.90;66.20;;;;;;5073862;28;20077;-65
2021/05/16 01:26:48;;;;;;;3.70;1.35;;;17.90;66.30;;;;;;5072443;28;20016;-65
2021/05/16 01:29:14;;;;;;;2.72;1.25;;;17.90;66.20;;;;;;5074036;28;20056;-65
2021/05/16 01:31:40;;;;;;;3.63;1.50;;;17.90;66.20;;;;;;5072555;28;20157;-65
2021/05/16 01:34:06;;;;;;;5.22;1.83;;;18.20;66.40;;;;;;5073609;28;20095;-65
2021/05/16 01:36:33;;;;;;;2.42;1.30;;;17.90;66.40;;;;;;5072383;28;20115;-65
2021/05/16 01:39:00;;;;;;;5.35;1.60;;;17.90;66.20;;;;;;5073618;28;20073;-65
2021/05/16 01:41:26;;;;;;;4.28;1.52;;;17.90;66.20;;;;;;5073289;28;20407;-65
2021/05/16 01:43:52;;;;;;;7.40;2.05;;;18.50;66.60;;;;;;5073705;28;20036;-65
2021/05/16 01:46:18;;;;;;;2.58;1.35;;;17.90;90.40;;;;;;5073664;28;20021;-65
2021/05/16 01:48:44;;;;;;;3.83;1.77;;;17.80;66.10;;;;;;5071998;28;20135;-65
2021/05/16 01:51:09;;;;;;;6.03;2.00;;;17.90;66.20;;;;;;5073261;28;20046;-65
2021/05/16 01:53:35;;;;;;;5.80;1.90;;;17.70;66.00;;;;;;5073499;28;20032;-65
2021/05/16 01:56:02;;;;;;;6.60;1.70;;;18.00;66.20;;;;;;5073319;28;20104;-65
2021/05/16 01:58:28;;;;;;;4.15;1.48;;;17.80;66.10;;;;;;5073250;28;20028;-65
2021/05/16 02:00:54;;;;;;;7.78;2.03;;;17.80;66.10;;;;;;5073245;28;20025;-65
2021/05/16 02:03:20;;;;;;;3.97;1.83;;;17.80;66.10;;;;;;5073481;28;20459;-65
2021/05/16 02:05:49;;;;;;;6.25;2.08;;;17.80;66.10;;;;;;5071813;28;20023;-66
2021/05/16 02:08:15;;;;;;;6.40;1.60;;;17.90;66.20;;;;;;5073231;28;20399;-65
2021/05/16 02:10:41;;;;;;;3.17;1.45;;;17.80;66.10;;;;;;5073279;28;20024;-65
2021/05/16 02:13:06;;;;;;;5.03;1.85;;;17.80;66.10;;;;;;5073069;28;20396;-65
2021/05/16 02:15:33;;;;;;;4.50;1.85;;;17.80;66.20;;;;;;5072978;28;20056;-65
2021/05/16 02:18:00;;;;;;;5.10;1.88;;;17.80;66.10;;;;;;5071700;28;20028;-65
2021/05/16 02:20:26;;;;;;;5.53;1.92;;;17.80;66.10;;;;;;5073008;28;20375;-65
2021/05/16 02:22:52;;;;;;;3.88;1.70;;;17.70;66.10;;;;;;5072807;28;20080;-65
2021/05/16 02:25:18;;;;;;;4.43;2.00;;;17.80;66.10;;;;;;5054886;28;20123;-65
2021/05/16 02:27:44;;;;;;;7.28;2.50;;;17.80;66.20;;;;;;5072696;28;20158;-65
2021/05/16 02:30:11;;;;;;;6.13;2.45;;;17.60;66.00;;;;;;5070880;28;20035;-65
2021/05/16 02:32:37;;;;;;;4.75;1.77;;;17.80;66.10;;;;;;5071411;28;20119;-65
2021/05/16 02:35:06;;;;;;;6.75;2.35;;;17.80;66.20;;;;;;5072702;28;20029;-65
2021/05/16 02:37:31;;;;;;;3.22;1.58;;;17.80;66.10;;;;;;5072915;28;20032;-65
2021/05/16 02:39:57;;;;;;;7.43;2.28;;;17.60;66.10;;;;;;5071357;28;20074;-65
2021/05/16 02:42:22;;;;;;;4.13;2.00;;;17.80;90.40;;;;;;5072532;28;20084;-65
2021/05/16 02:44:48;;;;;;;4.97;1.85;;;17.80;66.20;;;;;;5072589;28;20086;-65
2021/05/16 02:47:14;;;;;;;4.75;1.92;;;17.70;66.10;;;;;;5072491;28;20099;-65
2021/05/16 02:49:39;;;;;;;4.53;1.88;;;17.60;66.10;;;;;;5072548;28;20020;-65
2021/05/16 02:52:05;;;;;;;7.30;2.30;;;17.70;90.80;;;;;;5072592;28;20032;-65
2021/05/16 02:54:31;;;;;;;6.18;2.20;;;17.70;66.10;;;;;;5071191;28;20032;-65
2021/05/16 02:56:56;;;;;;;4.50;2.00;;;17.80;66.20;;;;;;5072452;28;20025;-65
2021/05/16 02:59:23;;;;;;;7.63;1.90;;;17.70;66.10;;;;;;5072536;28;20024;-65
2021/05/16 03:01:49;;;;;;;3.95;1.80;;;17.70;90.70;;;;;;5072810;28;20040;-65
2021/05/16 03:04:15;;;;;;;4.63;1.95;;;17.70;66.10;;;;;;5072428;28;20024;-65
2021/05/16 03:06:40;;;;;;;5.38;1.98;;;17.50;66.10;;;;;;5072594;28;20036;-65
2021/05/16 03:09:06;;;;;;;4.60;1.75;;;17.70;66.10;;;;;;5072356;28;20639;-65
2021/05/16 03:11:32;;;;;;;7.55;2.30;;;17.70;66.10;;;;;;5072663;28;20487;-65
2021/05/16 03:13:58;;;;;;;5.60;1.80;;;17.70;90.30;;;;;;5072285;28;20467;-65
2021/05/16 03:16:23;;;;;;;8.93;2.40;;;17.70;66.10;;;;;;5072320;28;20056;-65
2021/05/16 03:18:49;;;;;;;4.45;1.88;;;17.40;65.90;;;;;;5072269;28;20046;-65
2021/05/16 03:21:14;;;;;;;4.72;2.03;;;17.70;66.10;;;;;;5072232;28;20025;-65
2021/05/16 03:23:40;;;;;;;6.15;2.20;;;17.50;66.00;;;;;;5071387;28;20058;-65
2021/05/16 03:26:06;;;;;;;4.80;2.00;;;17.70;66.20;;;;;;5072165;28;20464;-65
2021/05/16 03:28:31;;;;;;;5.20;1.90;;;17.40;66.00;;;;;;5070841;28;20047;-65
2021/05/16 03:30:58;;;;;;;4.90;2.00;;;17.70;66.20;;;;;;5072139;28;20028;-65
2021/05/16 03:33:23;;;;;;;5.18;1.88;;;17.70;66.20;;;;;;5072099;28;20031;-65
2021/05/16 03:35:49;;;;;;;7.28;2.40;;;17.70;66.20;;;;;;5072061;28;20017;-65
2021/05/16 03:38:16;;;;;;;5.75;2.10;;;17.90;90.90;;;;;;5071957;28;20028;-65
2021/05/16 03:40:41;;;;;;;5.43;1.90;;;17.60;66.10;;;;;;5072051;28;20059;-64
2021/05/16 03:43:07;;;;;;;6.10;2.00;;;18.00;90.80;;;;;;5076079;28;20495;-65
2021/05/16 03:45:33;;;;;;;5.22;2.25;;;17.60;66.10;;;;;;5075658;28;20075;-65
2021/05/16 03:47:59;;;;;;;3.85;2.10;;;17.60;66.10;;;;;;5075594;28;20041;-65
2021/05/16 03:50:25;;;;;;;5.10;1.60;;;17.60;66.10;;;;;;5075639;28;20025;-65
2021/05/16 03:52:51;;;;;;;5.75;2.22;;;17.60;66.80;;;;;;5075640;28;20077;-65
2021/05/16 03:55:19;;;;;;;5.07;2.15;;;17.60;66.10;;;;;;5075513;28;20024;-65
2021/05/16 03:57:45;;;;;;;6.35;2.17;;;17.40;66.00;;;;;;5075782;28;20013;-65
2021/05/16 04:00:11;;;;;;;8.43;2.60;;;17.60;66.10;;;;;;5075451;28;20403;-65
2021/05/16 04:02:36;;;;;;;7.70;2.72;;;17.60;66.10;;;;;;5075339;28;20510;-65
2021/05/16 04:05:02;;;;;;;5.43;1.90;;;17.60;66.10;;;;;;5075593;28;20028;-65
2021/05/16 04:07:28;;;;;;;7.15;2.20;;;17.60;66.10;;;;;;5074020;28;20202;-65
2021/05/16 04:09:54;;;;;;;5.40;1.95;;;17.60;66.10;;;;;;5075296;28;20034;-65
2021/05/16 04:12:19;;;;;;;7.18;2.47;;;17.40;66.00;;;;;;5075325;28;20028;-65
2021/05/16 04:14:49;;;;;;;4.22;2.20;;;17.60;66.10;;;;;;5075171;28;20078;-65
2021/05/16 04:17:14;;;;;;;6.38;2.42;;;17.30;66.00;;;;;;5075212;28;20024;-65
2021/05/16 04:19:40;;;;;;;6.38;2.20;;;17.30;66.00;;;;;;5075428;28;20146;-65
2021/05/16 04:22:06;;;;;;;5.43;2.05;;;17.40;66.00;;;;;;5075350;28;20024;-65
2021/05/16 04:24:31;;;;;;;5.60;2.10;;;17.60;66.10;;;;;;5074997;28;20073;-65
2021/05/16 04:26:57;;;;;;;5.55;1.83;;;17.60;66.10;;;;;;5074964;28;20024;-64
2021/05/16 04:29:22;;;;;;;5.28;2.47;;;17.60;66.10;;;;;;5074958;28;20479;-65
2021/05/16 04:31:48;;;;;;;5.65;2.42;;;17.50;66.10;;;;;;5074915;28;20526;-65
2021/05/16 04:34:14;;;;;;;4.90;2.00;;;17.50;66.10;;;;;;5074793;28;20033;-65
2021/05/16 04:36:39;;;;;;;7.35;2.20;;;17.50;66.50;;;;;;5074861;28;20020;-65
2021/05/16 04:39:06;;;;;;;5.70;2.42;;;17.30;65.90;;;;;;5073392;28;20032;-65
2021/05/16 04:41:33;;;;;;;6.15;2.25;;;17.50;66.10;;;;;;5073176;28;20045;-65
2021/05/16 04:43:59;;;;;;;9.77;2.67;;;;;;;;;;5074966;28;20040;-65
2021/05/16 04:46:26;;;;;;;6.75;2.13;;;17.20;90.50;;;;;;5074856;28;20035;-65
2021/05/16 04:48:51;;;;;;;6.03;2.28;;;17.50;66.10;;;;;;5074778;28;20070;-64
2021/05/16 04:51:17;;;;;;;7.07;2.20;;;17.50;66.10;;;;;;5074785;28;20098;-65
2021/05/16 04:53:42;;;;;;;2.85;1.60;;;17.40;66.00;;;;;;5074203;28;20067;-65
2021/05/16 04:56:08;;;;;;;5.85;2.35;;;17.50;66.10;;;;;;5074459;28;20024;-65
2021/05/16 04:58:34;;;;;;;6.50;2.47;;;17.50;66.10;;;;;;5074645;28;20024;-65
2021/05/16 05:01:00;;;;;;;7.75;2.67;;;17.50;66.30;;;;;;5072975;28;20476;-65
2021/05/16 05:03:26;;;;;;;4.88;1.90;;;17.50;66.10;;;;;;5073075;28;20024;-65
2021/05/16 05:05:55;;;;;;;7.80;2.22;;;17.20;65.90;;;;;;5074502;28;20023;-65
2021/05/16 05:08:26;;;;;;;7.40;2.30;;;17.20;65.90;;;;;;5074359;28;20041;-65
2021/05/16 05:10:51;;;;;;;5.70;2.05;;;17.50;66.00;;;;;;5074239;28;20050;-65
2021/05/16 05:13:17;;;;;;;8.02;2.08;;;17.50;66.10;;;;;;5074075;28;20475;-65
2021/05/16 05:15:43;;;;;;;7.28;2.10;;;17.40;66.00;;;;;;5072804;28;20052;-65
2021/05/16 05:18:08;;;;;;;6.90;2.58;;;17.50;66.00;;;;;;5073976;28;20028;-65
2021/05/16 05:20:34;;;;;;;6.40;2.33;;;17.50;66.00;;;;;;5072818;28;20652;-65
2021/05/16 05:23:00;;;;;;;5.50;2.22;;;17.50;66.10;;;;;;5073949;28;20028;-65
2021/05/16 05:25:27;;;;;;;8.13;2.42;;;17.40;66.00;;;;;;5072580;28;20017;-65
2021/05/16 05:27:56;;;;;;;5.85;2.15;;;17.50;66.10;;;;;;5073789;28;20058;-65
2021/05/16 05:30:23;;;;;;;7.85;2.28;;;17.40;90.20;;;;;;5073847;28;20118;-65
2021/05/16 05:32:49;;;;;;;5.88;2.30;;;17.40;66.00;;;;;;5074123;28;20426;-65
2021/05/16 05:35:15;;;;;;;6.35;2.28;;;17.40;66.00;;;;;;5073669;28;20104;-65
2021/05/16 05:37:41;;;;;;;7.22;2.53;;;17.40;65.90;;;;;;5073586;28;20047;-65
2021/05/16 05:40:08;;;;;;;8.68;2.20;;;17.50;66.00;;;;;;5073541;28;20017;-65
2021/05/16 05:42:33;;;;;;;6.15;2.13;;;17.50;66.00;;;;;;5073433;28;20059;-65
2021/05/16 05:44:59;;;;;;;4.97;2.13;;;17.60;66.00;;;;;;5073566;28;20021;-65
2021/05/16 05:47:24;;;;;;;7.80;2.65;;;17.60;90.80;;;;;;5073667;28;20031;-65
2021/05/16 05:49:52;;;;;;;5.25;2.08;;;17.40;65.90;;;;;;5073417;28;20028;-65
2021/05/16 05:52:18;;;;;;;5.82;2.20;;;17.40;65.90;;;;;;5073282;28;20029;-65
2021/05/16 05:54:43;;;;;;;6.07;2.28;;;17.50;66.00;;;;;;5072040;28;20032;-65
2021/05/16 05:57:09;;;;;;;6.53;2.38;;;17.50;66.00;;;;;;5073293;28;20029;-65
2021/05/16 05:59:35;;;;;;;5.68;2.13;;;17.40;65.90;;;;;;5071937;28;20029;-65
2021/05/16 06:02:02;;;;;;;5.88;2.30;;;17.40;65.90;;;;;;5073182;28;20463;-65
2021/05/16 06:04:28;;;;;;;5.35;2.00;;;17.40;66.00;;;;;;5072420;28;20479;-65
2021/05/16 06:06:54;;;;;;;6.50;2.50;;;17.20;65.90;;;;;;5073232;28;20028;-65
2021/05/16 06:09:20;;;;;;;6.60;2.53;;;17.40;65.90;;;;;;5073057;28;20089;-65
2021/05/16 06:11:45;;;;;;;5.05;2.38;;;17.40;65.90;;;;;;5073004;28;20104;-65
2021/05/16 06:14:11;;;;;;;5.82;2.45;;;17.40;66.00;;;;;;5073217;28;20039;-65
2021/05/16 06:16:37;;;;;;;6.90;2.13;;;17.30;65.90;;;;;;5072076;28;20016;-65
2021/05/16 06:19:03;;;;;;;6.40;2.38;;;17.40;65.90;;;;;;5072881;28;20024;-65
2021/05/16 06:21:28;;;;;;;5.22;1.92;;;17.40;65.90;;;;;;5072880;28;20024;-65
2021/05/16 06:26:30;;;;;;;4.47;2.00;;;17.30;90.20;;;;;;5072830;28;20582;-64
2021/05/16 06:28:55;;;;;;;5.95;2.13;;;17.10;65.60;;;;;;5072743;28;20031;-64
2021/05/16 06:31:22;;;;;;;8.32;2.15;;;17.40;65.60;;;;;;5072969;28;20029;-63
2021/05/16 06:33:48;;;;;;;8.13;2.42;;;17.50;65.70;;;;;;5072968;28;20103;-63
2021/05/16 06:36:14;;;;;;;7.30;2.50;;;17.40;65.60;;;;;;5071453;28;20416;-63
2021/05/16 06:38:39;;;;;;;6.68;2.67;;;17.30;90.10;;;;;;5072597;28;20475;-63
2021/05/16 06:41:05;;;;;;;4.20;2.25;;;17.40;65.70;;;;;;5072626;28;20123;-63
2021/05/16 06:43:31;;;;;;;7.75;2.47;;;17.40;65.70;;;;;;5072827;28;20028;-63
2021/05/16 06:45:57;;;;;;;7.85;2.58;;;17.20;65.70;;;;;;5072538;28;20021;-64
2021/05/16 06:48:22;;;;;;;5.78;2.83;;;17.40;65.90;;;;;;5072733;28;20051;-63
2021/05/16 06:50:48;;;;;;;6.10;2.42;;;17.50;66.00;;;;;;5072508;28;20498;-64
2021/05/16 06:53:14;;;;;;;7.15;3.03;;;17.40;65.90;;;;;;5072794;28;20024;-63
2021/05/16 06:55:39;;;;;;;7.80;2.55;;;17.20;65.80;;;;;;5072554;28;20115;-64
2021/05/16 06:58:05;;;;;;;10.65;2.83;;;17.40;65.90;;;;;;5072724;28;20021;-64
2021/05/16 07:00:31;;;;;;;10.00;3.20;;;17.20;65.70;;;;;;5072470;28;20060;-64
2021/05/16 07:02:56;;;;;;;9.20;3.33;;;17.40;65.80;;;;;;5072485;28;20522;-63
2021/05/16 07:05:22;;;;;;;8.70;2.97;;;17.40;65.80;;;;;;5071166;28;20024;-64
2021/05/16 07:07:48;;;;;;;8.02;2.55;;;17.40;65.70;;;;;;5072626;28;20024;-63
2021/05/16 07:10:13;;;;;;;6.45;3.08;;;17.40;65.80;;;;;;5072361;28;20036;-63
2021/05/16 07:12:39;;;;;;;9.18;2.85;;;17.50;65.80;;;;;;5072571;28;20111;-63
2021/05/16 07:15:05;;;;;;;8.00;2.83;;;17.40;65.60;;;;;;5072364;28;20021;-63
2021/05/16 07:17:31;;;;;;;6.30;2.17;;;17.40;65.50;;;;;;5075433;28;20028;-63
2021/05/16 07:19:57;;;;;;;8.23;2.53;;;17.20;65.30;;;;;;5076220;28;20032;-64
2021/05/16 07:22:22;;;;;;;9.15;3.17;;;17.40;65.30;;;;;;5076227;28;20021;-63
2021/05/16 07:24:48;;;;;;;15.13;3.97;;;17.50;65.30;;;;;;5076494;28;20028;-64
2021/05/16 07:27:13;;;;;;;12.35;3.30;;;17.50;65.30;;;;;;5076106;28;20411;-63
2021/05/16 07:29:39;;;;;;;7.72;3.10;;;17.50;65.60;;;;;;5076133;28;20032;-64
2021/05/16 07:32:05;;;;;;;12.23;3.67;;;17.50;65.80;;;;;;5076070;28;20013;-64
2021/05/16 07:34:31;;;;;;;9.95;3.63;;;17.50;66.00;;;;;;5075943;28;20111;-63
2021/05/16 07:36:56;;;;;;;12.38;3.90;;;17.40;65.90;;;;;;5075996;28;20100;-63
2021/05/16 07:39:22;;;;;;;9.05;3.63;;;17.30;65.80;;;;;;5075923;28;20020;-64
2021/05/16 07:41:47;;;;;;;11.30;3.70;;;17.40;65.90;;;;;;5075689;28;20044;-63
2021/05/16 07:44:13;;;;;;;8.23;3.30;;;17.50;65.80;;;;;;5075834;28;20021;-64
2021/05/16 07:46:38;;;;;;;11.90;3.58;;;17.50;65.80;;;;;;5075712;28;20498;-63
2021/05/16 07:49:04;;;;;;;7.60;3.25;;;17.50;65.70;;;;;;5075739;28;20028;-63
2021/05/16 07:51:30;;;;;;;10.40;3.80;;;17.30;65.50;;;;;;5074450;28;20025;-64
2021/05/16 07:53:56;;;;;;;8.07;2.90;;;17.50;65.40;;;;;;5075609;28;20032;-63
2021/05/16 07:56:22;;;;;;;6.55;2.40;;;17.50;65.30;;;;;;5075702;28;20039;-63
2021/05/16 07:58:48;;;;;;;8.32;2.85;;;17.60;65.50;;;;;;5075819;28;20029;-63
2021/05/16 08:01:14;;;;;;;8.00;2.78;;;17.50;65.10;;;;;;5074216;28;20036;-63
2021/05/16 08:03:39;;;;;;;5.88;2.42;;;18.00;65.20;;;;;;5075553;28;20025;-63
2021/05/16 08:06:05;;;;;;;9.07;2.88;;;17.70;89.80;;;;;;5075387;28;20056;-63
2021/05/16 08:08:30;;;;;;;7.45;2.88;;;17.60;65.50;;;;;;5075563;28;20194;-63
2021/05/16 08:10:56;;;;;;;9.38;2.80;;;17.30;65.20;;;;;;5075356;28;20039;-62
2021/05/16 08:13:21;;;;;;;7.95;3.15;;;17.60;65.30;;;;;;5074142;28;20047;-63
2021/05/16 08:15:47;;;;;;;9.07;3.13;;;17.60;65.20;;;;;;5075272;28;20025;-63
2021/05/16 08:18:13;;;;;;;9.50;3.53;;;17.30;65.20;;;;;;5075427;28;20020;-63
2021/05/16 08:20:39;;;;;;;8.38;3.13;;;17.60;65.70;;;;;;5075502;28;20532;-64
2021/05/16 08:23:05;;;;;;;7.20;2.80;;;17.60;65.80;;;;;;5075099;28;20089;-60
2021/05/16 08:25:32;;;;;;;8.13;3.10;;;;;;;;;;5073904;28;20017;-61
2021/05/16 08:27:58;;;;;;;8.52;3.08;;;17.60;65.00;;;;;;5074262;28;20043;-61
2021/05/16 08:30:24;;;;;;;6.90;3.08;;;17.60;65.70;;;;;;5074984;28;20020;-61
2021/05/16 08:32:49;;;;;;;9.82;3.17;;;17.40;65.70;;;;;;5075215;28;20032;-61
2021/05/16 08:35:15;;;;;;;7.43;2.95;;;17.40;65.80;;;;;;5075213;28;20036;-61
2021/05/16 08:37:41;;;;;;;10.95;2.55;;;17.70;90.00;;;;;;5075000;28;20082;-61
2021/05/16 08:40:08;;;;;;;8.43;2.50;;;17.60;66.00;;;;;;5074812;28;20021;-61
2021/05/16 08:42:33;;;;;;;9.70;2.78;;;17.60;66.10;;;;;;5074552;28;20547;-61
2021/05/16 08:44:59;;;;;;;6.28;2.60;;;17.60;65.90;;;;;;5074724;28;20020;-63
2021/05/16 08:47:25;;;;;;;7.45;2.92;;;17.40;65.60;;;;;;5074623;28;20029;-63
2021/05/16 08:49:51;;;;;;;10.93;3.17;;;18.20;66.00;;;;;;5073505;28;20055;-63
2021/05/16 08:52:16;;;;;;;10.40;2.67;;;17.70;65.80;;;;;;5074665;28;20031;-64
2021/05/16 08:54:45;;;;;;;15.90;3.78;;;17.80;65.80;;;;;;5074622;28;20024;-63
2021/05/16 08:57:10;;;;;;;8.20;3.03;;;17.80;65.60;;;;;;5074935;28;20013;-63
2021/05/16 09:00:04;;;;;;;9.18;3.00;;;17.80;66.00;;;;;;5074950;28;20479;-63
2021/05/16 09:02:30;;;;;;;8.40;2.95;;;17.80;65.10;;;;;;5074605;28;20029;-63
2021/05/16 09:04:55;;;;;;;11.93;2.67;;;17.80;65.20;;;;;;5074747;28;20021;-63
2021/05/16 09:07:31;;;;;;;9.52;3.13;;;17.90;65.10;;;;;;5074666;28;20368;-63
2021/05/16 09:09:57;;;;;;;11.25;2.95;;;17.90;65.10;;;;;;5074392;28;20531;-63
2021/05/16 09:12:23;;;;;;;7.80;2.88;;;18.00;65.10;;;;;;5074322;28;20034;-63
2021/05/16 09:14:57;;;;;;;9.27;3.47;;;18.00;64.90;;;;;;5074547;28;20016;-64
2021/05/16 09:17:24;;;;;;;8.25;2.70;;;18.10;64.50;;;;;;5074586;28;20021;-62
2021/05/16 09:19:53;;;;;;;8.73;2.40;;;18.10;64.60;;;;;;5074585;28;20150;-63
2021/05/16 09:22:52;;;;;;;11.18;2.97;;;18.10;64.60;;;;;;5074429;28;20090;-63
2021/05/16 09:25:32;;;;;;;10.57;2.72;;;18.10;64.30;;;;;;5073855;28;20068;-63
2021/05/16 09:28:11;;;;;;;6.15;2.60;;;18.10;64.20;;;;;;5074023;28;20095;-63
2021/05/16 09:30:38;;;;;;;9.55;2.88;;;18.20;64.10;;;;;;5074009;28;20012;-63
2021/05/16 09:33:06;;;;;;;7.60;3.13;;;18.20;64.20;;;;;;5073895;28;20113;-63
2021/05/16 09:35:34;;;;;;;7.40;2.50;;;18.10;64.10;;;;;;5073986;28;20019;-63
2021/05/16 09:38:03;;;;;;;7.82;2.55;;;18.20;64.00;;;;;;5073528;28;20116;-63
2021/05/16 09:40:32;;;;;;;8.90;3.05;;;18.20;63.80;;;;;;5073369;28;20052;-56
2021/05/16 09:43:12;;;;;;;6.45;2.28;;;18.20;63.60;;;;;;5073789;28;20025;-64
2021/05/16 09:45:55;;;;;;;9.80;3.08;;;18.00;63.40;;;;;;5073660;28;20035;-62
2021/05/16 09:48:44;;;;;;;7.82;2.55;;;18.20;63.40;;;;;;5072997;28;20071;-62
2021/05/16 09:51:22;;;;;;;7.30;2.47;;;18.30;63.70;;;;;;5073188;28;20110;-62
2021/05/16 09:53:56;;;;;;;8.25;3.10;;;18.30;63.70;;;;;;5073328;28;20052;-64
2021/05/16 09:56:29;;;;;;;5.82;2.42;;;18.40;63.60;;;;;;5072882;28;20475;-63
2021/05/16 09:58:58;;;;;;;8.98;3.10;;;18.50;63.60;;;;;;5071904;28;20031;-64
2021/05/16 10:01:25;;;;;;;7.93;2.83;;;18.30;63.20;;;;;;5071851;28;20360;-64
2021/05/16 10:03:51;;;;;;;6.43;2.58;;;18.50;63.30;;;;;;5073048;28;20108;-64
2021/05/16 10:06:18;;;;;;;6.97;2.50;;;18.50;63.80;;;;;;5073332;28;20048;-64
2021/05/16 10:08:47;;;;;;;5.90;2.10;;;18.60;63.50;;;;;;5071677;28;20097;-64
2021/05/16 10:11:14;;;;;;;8.80;2.73;;;18.80;63.40;;;;;;5072978;28;20025;-64
2021/05/16 10:13:42;;;;;;;7.47;2.35;;;18.90;63.30;;;;;;5072981;28;20339;-64
2021/05/16 10:16:14;;;;;;;6.45;2.65;;;18.80;63.30;;;;;;5072947;28;20103;-64
2021/05/16 10:18:40;;;;;;;4.28;1.98;;;19.10;62.90;;;;;;5073256;28;20020;-64
2021/05/16 10:21:07;;;;;;;7.00;2.20;;;19.10;62.90;;;;;;5072917;28;20027;-64
2021/05/16 10:23:38;;;;;;;6.60;2.05;;;19.30;63.00;;;;;;5073125;28;20086;-64
2021/05/16 10:26:22;;;;;;;8.30;2.40;;;19.30;62.50;;;;;;5072845;28;20016;-64
2021/05/16 10:29:07;;;;;;;5.18;2.03;;;19.60;86.40;;;;;;5072981;28;20025;-64
2021/05/16 10:31:50;;;;;;;5.70;2.08;;;19.50;62.30;;;;;;5073154;28;20111;-64
2021/05/16 10:34:25;;;;;;;4.20;1.83;;;19.40;62.40;;;;;;5073000;28;20039;-64
2021/05/16 10:37:02;;;;;;;9.25;2.33;;;19.60;62.10;;;;;;5072922;28;20024;-63
2021/05/16 10:39:43;;;;;;;5.70;2.13;;;19.50;61.80;;;;;;5072950;28;20103;-64
2021/05/16 10:42:12;;;;;;;4.32;1.55;;;19.80;61.80;;;;;;5072581;28;20151;-64
2021/05/16 10:44:40;;;;;;;7.40;2.28;;;19.80;61.80;;;;;;5072709;28;20028;-64
2021/05/16 10:47:06;;;;;;;7.18;1.92;;;19.80;62.30;;;;;;5072535;28;20028;-63
2021/05/16 10:49:33;;;;;;;5.43;1.73;;;19.80;61.50;;;;;;5072863;28;20029;-64
2021/05/16 10:52:29;;;;;;;5.82;1.90;;;20.30;61.60;;;;;;5072011;28;20078;-62
2021/05/16 10:54:55;;;;;;;5.43;2.08;;;19.90;61.20;;;;;;5056160;28;20051;-63
2021/05/16 10:57:24;;;;;;;3.70;1.60;;;20.00;61.00;;;;;;5072850;28;20104;-64
2021/05/16 10:59:51;;;;;;;4.82;1.80;;;19.90;60.70;;;;;;5071358;28;20120;-65
2021/05/16 11:02:54;;;;;;;5.35;1.83;;;19.60;60.50;;;;;;5072800;28;20052;-64
2021/05/16 11:05:54;;;;;;;4.63;1.65;;;19.90;60.50;;;;;;5072459;28;20028;-65
2021/05/16 11:08:22;;;;;;;5.25;1.70;;;19.90;60.60;;;;;;5029106;28;20041;-65
2021/05/16 11:10:52;;;;;;;3.67;1.73;;;19.90;60.40;;;;;;5072375;28;20035;-64
2021/05/16 11:13:26;;;;;;;4.10;1.80;;;19.90;60.40;;;;;;5072339;28;20494;-64
2021/05/16 11:16:07;;;;;;;4.30;1.58;;;19.80;60.50;;;;;;5072661;28;20027;-64
2021/05/16 11:18:34;;;;;;;4.30;1.88;;;19.80;60.20;;;;;;5072312;28;20040;-64
2021/05/16 11:21:03;;;;;;;4.32;1.70;;;19.60;60.00;;;;;;5072571;28;20020;-65
2021/05/16 11:23:39;;;;;;;4.07;1.67;;;19.60;60.10;;;;;;5072550;28;20032;-65
2021/05/16 11:26:10;;;;;;;3.03;1.80;;;19.80;60.00;;;;;;5071455;28;20033;-64
2021/05/16 11:28:39;;;;;;;3.05;1.40;;;19.50;59.90;;;;;;5072133;28;20493;-64
2021/05/16 11:31:12;;;;;;;3.97;1.70;;;19.80;60.00;;;;;;5072180;28;20016;-65
2021/05/16 11:33:39;;;;;;;4.15;1.70;;;19.80;60.00;;;;;;5072803;28;20123;-62
2021/05/16 11:36:13;;;;;;;4.95;1.90;;;19.60;60.50;;;;;;5072170;28;20044;-63
2021/05/16 11:38:44;;;;;;;5.03;1.77;;;19.80;59.80;;;;;;5072034;28;20031;-62
2021/05/16 11:41:30;;;;;;;4.38;1.50;;;19.80;60.00;;;;;;5071929;28;20406;-62
2021/05/16 11:43:57;;;;;;;2.78;1.30;;;19.80;59.40;;;;;;5070862;28;20036;-62
2021/05/16 11:46:43;;;;;;;4.05;1.67;;;19.80;59.70;;;;;;5072096;28;20095;-62
2021/05/16 11:49:23;;;;;;;2.58;1.33;;;19.80;59.70;;;;;;5070624;28;20032;-62
2021/05/16 11:51:48;;;;;;;5.25;1.65;;;19.80;59.70;;;;;;5072037;28;20017;-62
2021/05/16 11:54:14;;;;;;;4.07;1.20;;;19.80;59.80;;;;;;5071894;28;20035;-62
2021/05/16 11:56:46;;;;;;;2.67;1.30;;;19.70;59.50;;;;;;5071862;28;20017;-62
2021/05/16 11:59:13;;;;;;;4.63;1.23;;;20.00;59.60;;;;;;5070554;28;20074;-62
2021/05/16 12:01:43;;;;;;;3.83;1.48;;;19.80;59.60;;;;;;5070595;28;20077;-62
2021/05/16 12:04:17;;;;;;;2.38;1.00;;;19.80;59.40;;;;;;5074196;28;20085;-62
2021/05/16 12:06:48;;;;;;;3.50;1.17;;;19.60;59.20;;;;;;5075721;28;20074;-63
2021/05/16 12:09:17;;;;;;;6.28;1.45;;;19.80;59.60;;;;;;5075573;28;20035;-62
2021/05/16 12:11:48;;;;;;;4.13;1.17;;;19.80;59.90;;;;;;5075619;28;20021;-62
2021/05/16 12:14:17;;;;;;;5.07;1.42;;;19.80;59.90;;;;;;5075631;28;20023;-62
2021/05/16 12:16:55;;;;;;;3.05;1.15;;;19.80;60.00;;;;;;5075266;28;20051;-62
2021/05/16 12:19:23;;;;;;;3.10;1.02;;;19.60;60.10;;;;;;5075463;28;20024;-62
2021/05/16 12:21:53;;;;;;;6.50;1.60;;;19.80;60.20;;;;;;5075080;28;20103;-62
2021/05/16 12:24:24;;;;;;;1.20;0.70;;;19.60;59.80;;;;;;5075180;28;20063;-62
2021/05/16 12:26:51;;;;;;;1.90;0.95;;;19.80;84.30;;;;;;5075071;28;20033;-62
2021/05/16 12:29:18;;;;;;;2.42;1.10;;;19.80;60.00;;;;;;5074941;28;20093;-62
2021/05/16 12:31:45;;;;;;;3.03;1.20;;;20.30;60.30;;;;;;5073729;28;20021;-62
2021/05/16 12:34:12;;;;;;;4.22;0.80;;;19.70;59.70;;;;;;5073699;28;20027;-62
2021/05/16 12:36:50;;;;;;;3.80;1.00;;;19.90;59.60;;;;;;5074863;28;20056;-63
2021/05/16 12:39:46;;;;;;;1.55;0.88;;;19.90;59.70;;;;;;5074893;28;20032;-62
2021/05/16 12:42:34;;;;;;;2.67;1.05;;;19.90;59.60;;;;;;5074672;28;20044;-63
2021/05/16 12:45:23;;;;;;;2.80;1.15;;;19.90;59.90;;;;;;5074693;28;20033;-62
2021/05/16 12:48:12;;;;;;;3.03;1.33;;;19.90;60.00;;;;;;5074592;28;20365;-62
2021/05/16 12:50:47;;;;;;;3.03;1.20;;;20.00;60.20;;;;;;5074729;28;20475;-61
2021/05/16 12:53:39;;;;;;;2.10;1.00;;;20.00;84.10;;;;;;5074919;28;20027;-63
2021/05/16 12:56:19;;;;;;;1.45;0.70;;;20.10;59.90;;;;;;5071475;28;20040;-62